sensor_id;sensor_type;location;lat;lon;timestamp;temperature;humidity
20654;DHT22;21083;50.898;4.902;2023-11-19T00:00:33;13.80;99.90
20654;DHT22;21083;50.898;4.902;2023-11-19T00:03:00;13.90;99.90
20654;DHT22;21083;50.898;4.902;2023-11-19T00:05:27;13.90;99.90
20654;DHT22;21083;50.898;4.902;2023-11-19T00:07:54;13.90;99.90
20654;DHT22;21083;50.898;4.902;2023-11-19T00:10:21;13.90;99.90
20654;DHT22;21083;50.898;4.902;2023-11-19T00:12:49;13.90;99.90
20654;DHT22;21083;50.898;4.902;2023-11-19T00:15:17;14.00;99.90
20654;DHT22;21083;50.898;4.902;2023-11-19T00:17:46;13.90;99.90
20654;DHT22;21083;50.898;4.902;2023-11-19T00:20:13;13.90;99.90
20654;DHT22;21083;50.898;4.902;2023-11-19T00:22:40;13.90;99.90
20654;DHT22;21083;50.898;4.902;2023-11-19T00:25:08;13.90;99.90
20654;DHT22;21083;50.898;4.902;2023-11-19T00:27:35;13.90;99.90
20654;DHT22;21083;50.898;4.902;2023-11-19T00:30:03;14.00;99.90
20654;DHT22;21083;50.898;4.902;2023-11-19T00:32:32;14.00;99.90
20654;DHT22;21083;50.898;4.902;2023-11-19T00:34:59;14.00;99.90
20654;DHT22;21083;50.898;4.902;2023-11-19T00:37:26;14.10;99.90
20654;DHT22;21083;50.898;4.902;2023-11-19T00:39:53;14.00;99.90
20654;DHT22;21083;50.898;4.902;2023-11-19T00:42:22;14.00;99.90
20654;DHT22;21083;50.898;4.902;2023-11-19T00:44:49;14.10;99.90
20654;DHT22;21083;50.898;4.902;2023-11-19T00:47:16;14.00;99.90
20654;DHT22;21083;50.898;4.902;2023-11-19T00:49:47;14.00;99.90
20654;DHT22;21083;50.898;4.902;2023-11-19T00:52:15;14.00;99.90
20654;DHT22;21083;50.898;4.902;2023-11-19T00:54:42;14.10;99.90
20654;DHT22;21083;50.898;4.902;2023-11-19T00:57:09;14.10;99.90
20654;DHT22;21083;50.898;4.902;2023-11-19T00:59:36;14.10;99.90
20654;DHT22;21083;50.898;4.902;2023-11-19T01:02:04;14.20;99.90
20654;DHT22;21083;50.898;4.902;2023-11-19T01:04:33;14.10;99.90
20654;DHT22;21083;50.898;4.902;2023-11-19T01:07:03;14.20;99.90
20654;DHT22;21083;50.898;4.902;2023-11-19T01:09:31;14.10;99.90
20654;DHT22;21083;50.898;4.902;2023-11-19T01:12:00;14.10;99.90
20654;DHT22;21083;50.898;4.902;2023-11-19T01:14:27;14.20;99.90
20654;DHT22;21083;50.898;4.902;2023-11-19T01:16:55;14.20;99.90
20654;DHT22;21083;50.898;4.902;2023-11-19T01:19:22;14.20;99.90
20654;DHT22;21083;50.898;4.902;2023-11-19T01:21:49;14.30;99.90
20654;DHT22;21083;50.898;4.902;2023-11-19T01:24:18;14.30;99.90
20654;DHT22;21083;50.898;4.902;2023-11-19T01:26:45;14.30;99.90
20654;DHT22;21083;50.898;4.902;2023-11-19T01:29:13;14.30;99.90
20654;DHT22;21083;50.898;4.902;2023-11-19T01:31:40;14.30;99.90
20654;DHT22;21083;50.898;4.902;2023-11-19T01:34:07;14.30;99.90
20654;DHT22;21083;50.898;4.902;2023-11-19T01:36:35;14.20;99.90
20654;DHT22;21083;50.898;4.902;2023-11-19T01:39:02;14.30;99.90
20654;DHT22;21083;50.898;4.902;2023-11-19T01:41:34;14.20;99.90
20654;DHT22;21083;50.898;4.902;2023-11-19T01:44:01;14.20;99.90
20654;DHT22;21083;50.898;4.902;2023-11-19T01:46:28;14.20;99.90
20654;DHT22;21083;50.898;4.902;2023-11-19T01:48:56;14.20;99.90
20654;DHT22;21083;50.898;4.902;2023-11-19T01:51:23;14.30;99.90
20654;DHT22;21083;50.898;4.902;2023-11-19T01:53:50;14.20;99.90
20654;DHT22;21083;50.898;4.902;2023-11-19T01:56:17;14.10;99.90
20654;DHT22;21083;50.898;4.902;2023-11-19T01:58:47;14.20;99.90
20654;DHT22;21083;50.898;4.902;2023-11-19T02:01:15;14.20;99.90
20654;DHT22;21083;50.898;4.902;2023-11-19T02:03:42;14.20;99.90
20654;DHT22;21083;50.898;4.902;2023-11-19T02:06:09;14.20;99.90
20654;DHT22;21083;50.898;4.902;2023-11-19T02:08:36;14.30;99.90
20654;DHT22;21083;50.898;4.902;2023-11-19T02:11:04;14.20;99.90
20654;DHT22;21083;50.898;4.902;2023-11-19T02:13:32;14.20;99.90
20654;DHT22;21083;50.898;4.902;2023-11-19T02:16:03;14.20;99.90
20654;DHT22;21083;50.898;4.902;2023-11-19T02:18:30;14.10;99.90
20654;DHT22;21083;50.898;4.902;2023-11-19T02:20:59;14.20;99.90
20654;DHT22;21083;50.898;4.902;2023-11-19T02:23:27;14.20;99.90
20654;DHT22;21083;50.898;4.902;2023-11-19T02:26:02;14.20;99.90
20654;DHT22;21083;50.898;4.902;2023-11-19T02:28:33;14.10;99.90
20654;DHT22;21083;50.898;4.902;2023-11-19T02:31:00;14.00;99.90
20654;DHT22;21083;50.898;4.902;2023-11-19T02:33:27;14.00;99.90
20654;DHT22;21083;50.898;4.902;2023-11-19T02:35:55;14.00;99.90
20654;DHT22;21083;50.898;4.902;2023-11-19T02:38:21;13.90;99.90
20654;DHT22;21083;50.898;4.902;2023-11-19T02:40:48;13.80;99.90
20654;DHT22;21083;50.898;4.902;2023-11-19T02:43:15;13.80;99.90
20654;DHT22;21083;50.898;4.902;2023-11-19T02:45:45;13.60;99.90
20654;DHT22;21083;50.898;4.902;2023-11-19T02:48:12;13.70;99.90
20654;DHT22;21083;50.898;4.902;2023-11-19T02:50:39;13.70;99.90
20654;DHT22;21083;50.898;4.902;2023-11-19T02:53:07;13.80;99.90
20654;DHT22;21083;50.898;4.902;2023-11-19T02:55:34;13.80;99.90
20654;DHT22;21083;50.898;4.902;2023-11-19T02:58:03;13.70;99.90
20654;DHT22;21083;50.898;4.902;2023-11-19T03:00:35;13.70;99.90
20654;DHT22;21083;50.898;4.902;2023-11-19T03:03:09;13.70;99.90
20654;DHT22;21083;50.898;4.902;2023-11-19T03:05:45;13.80;99.90
20654;DHT22;21083;50.898;4.902;2023-11-19T03:08:15;13.70;99.90
20654;DHT22;21083;50.898;4.902;2023-11-19T03:10:42;13.60;99.90
20654;DHT22;21083;50.898;4.902;2023-11-19T03:13:11;13.70;99.90
20654;DHT22;21083;50.898;4.902;2023-11-19T03:15:40;13.50;99.90
20654;DHT22;21083;50.898;4.902;2023-11-19T03:18:08;13.50;99.90
20654;DHT22;21083;50.898;4.902;2023-11-19T03:20:35;13.60;99.90
20654;DHT22;21083;50.898;4.902;2023-11-19T03:23:02;13.60;99.90
20654;DHT22;21083;50.898;4.902;2023-11-19T03:25:29;13.60;99.90
20654;DHT22;21083;50.898;4.902;2023-11-19T03:27:59;13.60;99.90
20654;DHT22;21083;50.898;4.902;2023-11-19T03:30:26;13.70;99.90
20654;DHT22;21083;50.898;4.902;2023-11-19T03:32:54;13.70;99.90
20654;DHT22;21083;50.898;4.902;2023-11-19T03:35:22;13.70;99.90
20654;DHT22;21083;50.898;4.902;2023-11-19T03:37:50;13.70;99.90
20654;DHT22;21083;50.898;4.902;2023-11-19T03:40:17;13.60;99.90
20654;DHT22;21083;50.898;4.902;2023-11-19T03:42:44;13.50;99.90
20654;DHT22;21083;50.898;4.902;2023-11-19T03:45:11;13.50;99.90
20654;DHT22;21083;50.898;4.902;2023-11-19T03:47:38;13.50;99.90
20654;DHT22;21083;50.898;4.902;2023-11-19T03:50:06;13.50;99.90
20654;DHT22;21083;50.898;4.902;2023-11-19T03:52:35;13.50;99.90
20654;DHT22;21083;50.898;4.902;2023-11-19T03:55:03;13.50;99.90
20654;DHT22;21083;50.898;4.902;2023-11-19T03:57:30;13.50;99.90
20654;DHT22;21083;50.898;4.902;2023-11-19T03:59:57;13.50;99.90
20654;DHT22;21083;50.898;4.902;2023-11-19T04:02:25;13.50;99.90
20654;DHT22;21083;50.898;4.902;2023-11-19T04:04:54;13.40;99.90
20654;DHT22;21083;50.898;4.902;2023-11-19T04:07:21;13.50;99.90
20654;DHT22;21083;50.898;4.902;2023-11-19T04:09:50;13.40;99.90
20654;DHT22;21083;50.898;4.902;2023-11-19T04:12:17;13.40;99.90
20654;DHT22;21083;50.898;4.902;2023-11-19T04:14:44;13.50;99.90
20654;DHT22;21083;50.898;4.902;2023-11-19T04:17:10;13.40;99.90
20654;DHT22;21083;50.898;4.902;2023-11-19T04:19:37;13.30;99.90
20654;DHT22;21083;50.898;4.902;2023-11-19T04:22:07;13.20;99.90
20654;DHT22;21083;50.898;4.902;2023-11-19T04:24:34;13.20;99.90
20654;DHT22;21083;50.898;4.902;2023-11-19T04:27:03;13.10;99.90
20654;DHT22;21083;50.898;4.902;2023-11-19T04:29:32;13.10;99.90
20654;DHT22;21083;50.898;4.902;2023-11-19T04:32:00;13.20;99.90
20654;DHT22;21083;50.898;4.902;2023-11-19T04:34:27;13.30;99.90
20654;DHT22;21083;50.898;4.902;2023-11-19T04:36:53;13.20;99.90
20654;DHT22;21083;50.898;4.902;2023-11-19T04:39:20;13.20;99.90
20654;DHT22;21083;50.898;4.902;2023-11-19T04:41:48;13.30;99.90
20654;DHT22;21083;50.898;4.902;2023-11-19T04:44:16;13.30;99.90
20654;DHT22;21083;50.898;4.902;2023-11-19T04:46:44;13.30;99.90
20654;DHT22;21083;50.898;4.902;2023-11-19T04:49:11;13.30;99.90
20654;DHT22;21083;50.898;4.902;2023-11-19T04:51:39;13.20;99.90
20654;DHT22;21083;50.898;4.902;2023-11-19T04:54:07;13.30;99.90
20654;DHT22;21083;50.898;4.902;2023-11-19T04:56:34;13.30;99.90
20654;DHT22;21083;50.898;4.902;2023-11-19T04:59:02;13.20;99.90
20654;DHT22;21083;50.898;4.902;2023-11-19T05:01:30;13.30;99.90
20654;DHT22;21083;50.898;4.902;2023-11-19T05:03:57;13.20;99.90
20654;DHT22;21083;50.898;4.902;2023-11-19T05:06:26;13.10;99.90
20654;DHT22;21083;50.898;4.902;2023-11-19T05:08:54;13.10;99.90
20654;DHT22;21083;50.898;4.902;2023-11-19T05:11:21;13.00;99.90
20654;DHT22;21083;50.898;4.902;2023-11-19T05:13:48;12.90;99.90
20654;DHT22;21083;50.898;4.902;2023-11-19T05:16:15;12.80;99.90
20654;DHT22;21083;50.898;4.902;2023-11-19T05:18:44;12.80;99.90
20654;DHT22;21083;50.898;4.902;2023-11-19T05:21:11;12.70;99.90
20654;DHT22;21083;50.898;4.902;2023-11-19T05:23:38;12.90;99.90
20654;DHT22;21083;50.898;4.902;2023-11-19T05:26:07;12.90;99.90
20654;DHT22;21083;50.898;4.902;2023-11-19T05:28:37;13.00;99.90
20654;DHT22;21083;50.898;4.902;2023-11-19T05:31:05;12.90;99.90
20654;DHT22;21083;50.898;4.902;2023-11-19T05:33:32;12.90;99.90
20654;DHT22;21083;50.898;4.902;2023-11-19T05:36:00;12.90;99.90
20654;DHT22;21083;50.898;4.902;2023-11-19T05:38:29;12.90;99.90
20654;DHT22;21083;50.898;4.902;2023-11-19T05:40:55;12.90;99.90
20654;DHT22;21083;50.898;4.902;2023-11-19T05:43:22;12.80;99.90
20654;DHT22;21083;50.898;4.902;2023-11-19T05:45:49;12.80;99.90
20654;DHT22;21083;50.898;4.902;2023-11-19T05:48:16;12.80;99.90
20654;DHT22;21083;50.898;4.902;2023-11-19T05:50:43;12.90;99.90
20654;DHT22;21083;50.898;4.902;2023-11-19T05:53:12;12.80;99.90
20654;DHT22;21083;50.898;4.902;2023-11-19T05:55:40;12.90;99.90
20654;DHT22;21083;50.898;4.902;2023-11-19T05:58:14;12.90;99.90
20654;DHT22;21083;50.898;4.902;2023-11-19T06:00:41;12.80;99.90
20654;DHT22;21083;50.898;4.902;2023-11-19T06:03:08;12.90;99.90
20654;DHT22;21083;50.898;4.902;2023-11-19T06:05:35;12.80;99.90
20654;DHT22;21083;50.898;4.902;2023-11-19T06:08:02;12.80;99.90
20654;DHT22;21083;50.898;4.902;2023-11-19T06:10:30;12.90;99.90
20654;DHT22;21083;50.898;4.902;2023-11-19T06:12:58;12.80;99.90
20654;DHT22;21083;50.898;4.902;2023-11-19T06:15:26;12.80;99.90
20654;DHT22;21083;50.898;4.902;2023-11-19T06:17:53;12.90;99.90
20654;DHT22;21083;50.898;4.902;2023-11-19T06:20:20;12.80;99.90
20654;DHT22;21083;50.898;4.902;2023-11-19T06:22:47;12.70;99.90
20654;DHT22;21083;50.898;4.902;2023-11-19T06:25:14;12.70;99.90
20654;DHT22;21083;50.898;4.902;2023-11-19T06:27:43;12.70;99.90
20654;DHT22;21083;50.898;4.902;2023-11-19T06:30:10;12.70;99.90
20654;DHT22;21083;50.898;4.902;2023-11-19T06:32:38;12.50;99.90
20654;DHT22;21083;50.898;4.902;2023-11-19T06:35:05;12.60;99.90
20654;DHT22;21083;50.898;4.902;2023-11-19T06:37:33;12.50;99.90
20654;DHT22;21083;50.898;4.902;2023-11-19T06:40:00;12.50;99.90
20654;DHT22;21083;50.898;4.902;2023-11-19T06:42:26;12.40;99.90
20654;DHT22;21083;50.898;4.902;2023-11-19T06:44:55;12.40;99.90
20654;DHT22;21083;50.898;4.902;2023-11-19T06:47:25;12.30;99.90
20654;DHT22;21083;50.898;4.902;2023-11-19T06:49:52;12.30;99.90
20654;DHT22;21083;50.898;4.902;2023-11-19T06:52:19;12.30;99.90
20654;DHT22;21083;50.898;4.902;2023-11-19T06:54:46;12.30;99.90
20654;DHT22;21083;50.898;4.902;2023-11-19T06:57:13;12.30;99.90
20654;DHT22;21083;50.898;4.902;2023-11-19T06:59:40;12.30;99.90
20654;DHT22;21083;50.898;4.902;2023-11-19T07:02:08;12.30;99.90
20654;DHT22;21083;50.898;4.902;2023-11-19T07:04:35;12.30;99.90
20654;DHT22;21083;50.898;4.902;2023-11-19T07:07:02;12.20;99.90
20654;DHT22;21083;50.898;4.902;2023-11-19T07:09:31;12.20;99.90
20654;DHT22;21083;50.898;4.902;2023-11-19T07:11:58;12.30;99.90
20654;DHT22;21083;50.898;4.902;2023-11-19T07:14:27;12.30;99.90
20654;DHT22;21083;50.898;4.902;2023-11-19T07:16:54;12.20;99.90
20654;DHT22;21083;50.898;4.902;2023-11-19T07:19:22;12.20;99.90
20654;DHT22;21083;50.898;4.902;2023-11-19T07:21:49;12.20;99.90
20654;DHT22;21083;50.898;4.902;2023-11-19T07:24:16;12.20;99.90
20654;DHT22;21083;50.898;4.902;2023-11-19T07:26:43;12.30;99.90
20654;DHT22;21083;50.898;4.902;2023-11-19T07:29:10;12.30;99.90
20654;DHT22;21083;50.898;4.902;2023-11-19T07:31:37;12.30;99.90
20654;DHT22;21083;50.898;4.902;2023-11-19T07:34:04;12.20;99.90
20654;DHT22;21083;50.898;4.902;2023-11-19T07:36:33;12.10;99.90
20654;DHT22;21083;50.898;4.902;2023-11-19T07:39:00;12.20;99.90
20654;DHT22;21083;50.898;4.902;2023-11-19T07:41:27;12.20;99.90
20654;DHT22;21083;50.898;4.902;2023-11-19T07:43:55;12.10;99.90
20654;DHT22;21083;50.898;4.902;2023-11-19T07:46:22;12.20;99.90
20654;DHT22;21083;50.898;4.902;2023-11-19T07:48:48;12.20;99.90
20654;DHT22;21083;50.898;4.902;2023-11-19T07:51:16;12.10;99.90
20654;DHT22;21083;50.898;4.902;2023-11-19T07:53:44;12.10;99.90
20654;DHT22;21083;50.898;4.902;2023-11-19T07:56:11;12.10;99.90
20654;DHT22;21083;50.898;4.902;2023-11-19T07:58:37;12.10;99.90
20654;DHT22;21083;50.898;4.902;2023-11-19T08:01:05;12.10;99.90
20654;DHT22;21083;50.898;4.902;2023-11-19T08:03:32;12.20;99.90
20654;DHT22;21083;50.898;4.902;2023-11-19T08:06:00;12.20;99.90
20654;DHT22;21083;50.898;4.902;2023-11-19T08:08:27;12.30;99.90
20654;DHT22;21083;50.898;4.902;2023-11-19T08:10:57;12.30;99.90
20654;DHT22;21083;50.898;4.902;2023-11-19T08:13:24;12.30;99.90
20654;DHT22;21083;50.898;4.902;2023-11-19T08:15:51;12.30;99.90
20654;DHT22;21083;50.898;4.902;2023-11-19T08:18:18;12.40;99.90
20654;DHT22;21083;50.898;4.902;2023-11-19T08:20:45;12.40;99.90
20654;DHT22;21083;50.898;4.902;2023-11-19T08:23:15;12.40;99.90
20654;DHT22;21083;50.898;4.902;2023-11-19T08:25:42;12.40;99.90
20654;DHT22;21083;50.898;4.902;2023-11-19T08:28:11;12.40;99.90
20654;DHT22;21083;50.898;4.902;2023-11-19T08:30:38;12.50;99.90
20654;DHT22;21083;50.898;4.902;2023-11-19T08:33:05;12.60;99.90
20654;DHT22;21083;50.898;4.902;2023-11-19T08:35:32;12.60;99.90
20654;DHT22;21083;50.898;4.902;2023-11-19T08:37:59;12.60;99.90
20654;DHT22;21083;50.898;4.902;2023-11-19T08:40:27;12.60;99.90
20654;DHT22;21083;50.898;4.902;2023-11-19T08:42:55;12.50;99.90
20654;DHT22;21083;50.898;4.902;2023-11-19T08:45:24;12.60;99.90
20654;DHT22;21083;50.898;4.902;2023-11-19T08:47:51;12.70;99.90
20654;DHT22;21083;50.898;4.902;2023-11-19T08:50:18;12.70;99.90
20654;DHT22;21083;50.898;4.902;2023-11-19T08:52:45;12.70;99.90
20654;DHT22;21083;50.898;4.902;2023-11-19T08:55:11;12.80;99.90
20654;DHT22;21083;50.898;4.902;2023-11-19T08:57:39;12.80;99.90
20654;DHT22;21083;50.898;4.902;2023-11-19T09:00:07;12.70;99.90
20654;DHT22;21083;50.898;4.902;2023-11-19T09:02:35;12.80;99.90
20654;DHT22;21083;50.898;4.902;2023-11-19T09:05:04;12.80;99.90
20654;DHT22;21083;50.898;4.902;2023-11-19T09:07:31;12.90;99.90
20654;DHT22;21083;50.898;4.902;2023-11-19T09:09:58;12.90;99.90
20654;DHT22;21083;50.898;4.902;2023-11-19T09:12:25;12.90;99.90
20654;DHT22;21083;50.898;4.902;2023-11-19T09:14:52;12.90;99.90
20654;DHT22;21083;50.898;4.902;2023-11-19T09:17:19;13.00;99.90
20654;DHT22;21083;50.898;4.902;2023-11-19T09:19:47;13.10;99.90
20654;DHT22;21083;50.898;4.902;2023-11-19T09:22:14;13.00;99.90
20654;DHT22;21083;50.898;4.902;2023-11-19T09:24:41;13.00;99.90
20654;DHT22;21083;50.898;4.902;2023-11-19T09:27:11;12.90;99.90
20654;DHT22;21083;50.898;4.902;2023-11-19T09:29:38;12.80;99.90
20654;DHT22;21083;50.898;4.902;2023-11-19T09:32:06;12.70;99.90
20654;DHT22;21083;50.898;4.902;2023-11-19T09:34:33;12.70;99.90
20654;DHT22;21083;50.898;4.902;2023-11-19T09:37:01;12.70;99.90
20654;DHT22;21083;50.898;4.902;2023-11-19T09:39:28;12.80;99.90
20654;DHT22;21083;50.898;4.902;2023-11-19T09:41:55;12.80;99.90
20654;DHT22;21083;50.898;4.902;2023-11-19T09:44:23;12.80;99.90
20654;DHT22;21083;50.898;4.902;2023-11-19T09:46:51;12.80;99.90
20654;DHT22;21083;50.898;4.902;2023-11-19T09:49:21;12.90;99.90
20654;DHT22;21083;50.898;4.902;2023-11-19T09:51:49;13.00;99.90
20654;DHT22;21083;50.898;4.902;2023-11-19T09:54:17;13.20;99.90
20654;DHT22;21083;50.898;4.902;2023-11-19T09:56:44;13.30;99.90
20654;DHT22;21083;50.898;4.902;2023-11-19T09:59:12;13.30;99.90
20654;DHT22;21083;50.898;4.902;2023-11-19T10:01:39;13.30;99.90
20654;DHT22;21083;50.898;4.902;2023-11-19T10:04:07;13.40;99.90
20654;DHT22;21083;50.898;4.902;2023-11-19T10:06:34;13.50;99.90
20654;DHT22;21083;50.898;4.902;2023-11-19T10:09:01;13.70;99.90
20654;DHT22;21083;50.898;4.902;2023-11-19T10:11:31;13.60;99.90
20654;DHT22;21083;50.898;4.902;2023-11-19T10:13:59;13.70;99.90
20654;DHT22;21083;50.898;4.902;2023-11-19T10:16:29;13.80;99.90
20654;DHT22;21083;50.898;4.902;2023-11-19T10:18:57;13.80;99.90
20654;DHT22;21083;50.898;4.902;2023-11-19T10:21:25;13.90;99.90
20654;DHT22;21083;50.898;4.902;2023-11-19T10:23:55;14.00;99.90
20654;DHT22;21083;50.898;4.902;2023-11-19T10:26:23;14.00;99.90
20654;DHT22;21083;50.898;4.902;2023-11-19T10:28:51;14.10;99.90
20654;DHT22;21083;50.898;4.902;2023-11-19T10:31:20;13.90;99.90
20654;DHT22;21083;50.898;4.902;2023-11-19T10:33:50;14.00;99.90
20654;DHT22;21083;50.898;4.902;2023-11-19T10:36:17;14.10;99.90
20654;DHT22;21083;50.898;4.902;2023-11-19T10:38:52;14.20;99.90
20654;DHT22;21083;50.898;4.902;2023-11-19T10:41:27;14.30;99.90
20654;DHT22;21083;50.898;4.902;2023-11-19T10:43:55;14.40;99.90
20654;DHT22;21083;50.898;4.902;2023-11-19T10:46:22;14.50;99.90
20654;DHT22;21083;50.898;4.902;2023-11-19T10:48:50;14.70;99.90
20654;DHT22;21083;50.898;4.902;2023-11-19T10:51:19;14.70;99.90
20654;DHT22;21083;50.898;4.902;2023-11-19T10:53:49;14.60;99.90
20654;DHT22;21083;50.898;4.902;2023-11-19T10:56:20;14.50;99.90
20654;DHT22;21083;50.898;4.902;2023-11-19T10:58:51;14.50;99.90
20654;DHT22;21083;50.898;4.902;2023-11-19T11:01:23;14.50;99.90
20654;DHT22;21083;50.898;4.902;2023-11-19T11:03:51;14.40;99.90
20654;DHT22;21083;50.898;4.902;2023-11-19T11:06:20;14.40;99.90
20654;DHT22;21083;50.898;4.902;2023-11-19T11:08:48;14.40;99.90
20654;DHT22;21083;50.898;4.902;2023-11-19T11:11:15;14.20;99.90
20654;DHT22;21083;50.898;4.902;2023-11-19T11:13:47;14.10;99.90
20654;DHT22;21083;50.898;4.902;2023-11-19T11:16:18;14.10;99.90
20654;DHT22;21083;50.898;4.902;2023-11-19T11:18:47;14.00;99.90
20654;DHT22;21083;50.898;4.902;2023-11-19T11:21:17;13.90;99.90
20654;DHT22;21083;50.898;4.902;2023-11-19T11:24:01;13.80;99.90
20654;DHT22;21083;50.898;4.902;2023-11-19T11:27:02;13.90;99.90
20654;DHT22;21083;50.898;4.902;2023-11-19T11:29:39;14.00;99.90
20654;DHT22;21083;50.898;4.902;2023-11-19T11:32:27;13.80;99.90
20654;DHT22;21083;50.898;4.902;2023-11-19T11:37:47;14.00;99.90
20654;DHT22;21083;50.898;4.902;2023-11-19T11:40:17;14.00;99.90
20654;DHT22;21083;50.898;4.902;2023-11-19T11:42:45;13.90;99.90
20654;DHT22;21083;50.898;4.902;2023-11-19T11:45:14;13.90;99.90
20654;DHT22;21083;50.898;4.902;2023-11-19T11:48:12;13.90;99.90
20654;DHT22;21083;50.898;4.902;2023-11-19T11:50:54;14.00;99.90
20654;DHT22;21083;50.898;4.902;2023-11-19T11:53:23;14.30;99.90
20654;DHT22;21083;50.898;4.902;2023-11-19T11:55:55;14.20;99.90
20654;DHT22;21083;50.898;4.902;2023-11-19T11:58:30;14.30;99.90
20654;DHT22;21083;50.898;4.902;2023-11-19T12:00:58;14.80;99.90
20654;DHT22;21083;50.898;4.902;2023-11-19T12:03:28;15.10;99.90
20654;DHT22;21083;50.898;4.902;2023-11-19T12:05:57;15.30;99.90
20654;DHT22;21083;50.898;4.902;2023-11-19T12:08:26;15.70;99.90
20654;DHT22;21083;50.898;4.902;2023-11-19T12:10:55;16.00;99.90
20654;DHT22;21083;50.898;4.902;2023-11-19T12:13:24;16.20;99.90
20654;DHT22;21083;50.898;4.902;2023-11-19T12:16:10;16.10;99.90
20654;DHT22;21083;50.898;4.902;2023-11-19T12:18:39;15.90;99.90
20654;DHT22;21083;50.898;4.902;2023-11-19T12:21:08;16.00;99.90
20654;DHT22;21083;50.898;4.902;2023-11-19T12:23:45;16.00;99.90
20654;DHT22;21083;50.898;4.902;2023-11-19T12:26:38;15.50;99.90
20654;DHT22;21083;50.898;4.902;2023-11-19T12:29:06;15.00;99.90
20654;DHT22;21083;50.898;4.902;2023-11-19T12:31:33;15.00;99.90
20654;DHT22;21083;50.898;4.902;2023-11-19T12:34:07;15.30;99.90
20654;DHT22;21083;50.898;4.902;2023-11-19T12:36:39;15.60;99.90
20654;DHT22;21083;50.898;4.902;2023-11-19T12:39:07;15.80;99.90
20654;DHT22;21083;50.898;4.902;2023-11-19T12:41:52;15.70;99.90
20654;DHT22;21083;50.898;4.902;2023-11-19T12:44:20;15.30;99.90
20654;DHT22;21083;50.898;4.902;2023-11-19T12:46:51;14.80;99.90
20654;DHT22;21083;50.898;4.902;2023-11-19T12:49:25;14.50;99.90
20654;DHT22;21083;50.898;4.902;2023-11-19T12:51:53;14.30;99.90
20654;DHT22;21083;50.898;4.902;2023-11-19T12:54:31;14.20;99.90
20654;DHT22;21083;50.898;4.902;2023-11-19T12:56:58;14.00;99.90
20654;DHT22;21083;50.898;4.902;2023-11-19T12:59:25;13.80;99.90
20654;DHT22;21083;50.898;4.902;2023-11-19T13:01:55;13.80;99.90
20654;DHT22;21083;50.898;4.902;2023-11-19T13:04:23;13.70;99.90
20654;DHT22;21083;50.898;4.902;2023-11-19T13:06:50;13.70;99.90
20654;DHT22;21083;50.898;4.902;2023-11-19T13:09:26;13.60;99.90
20654;DHT22;21083;50.898;4.902;2023-11-19T13:11:54;13.60;99.90
20654;DHT22;21083;50.898;4.902;2023-11-19T13:14:22;13.70;99.90
20654;DHT22;21083;50.898;4.902;2023-11-19T13:16:49;14.10;99.90
20654;DHT22;21083;50.898;4.902;2023-11-19T13:19:16;14.20;99.90
20654;DHT22;21083;50.898;4.902;2023-11-19T13:21:44;14.00;99.90
20654;DHT22;21083;50.898;4.902;2023-11-19T13:24:12;13.90;99.90
20654;DHT22;21083;50.898;4.902;2023-11-19T13:26:41;13.70;99.90
20654;DHT22;21083;50.898;4.902;2023-11-19T13:29:08;13.70;99.90
20654;DHT22;21083;50.898;4.902;2023-11-19T13:31:36;13.80;99.90
20654;DHT22;21083;50.898;4.902;2023-11-19T13:34:03;14.00;99.90
20654;DHT22;21083;50.898;4.902;2023-11-19T13:36:32;14.70;99.90
20654;DHT22;21083;50.898;4.902;2023-11-19T13:38:59;14.50;99.90
20654;DHT22;21083;50.898;4.902;2023-11-19T13:41:26;14.50;99.90
20654;DHT22;21083;50.898;4.902;2023-11-19T13:43:55;14.20;99.90
20654;DHT22;21083;50.898;4.902;2023-11-19T13:46:21;14.00;99.90
20654;DHT22;21083;50.898;4.902;2023-11-19T13:48:48;14.00;99.90
20654;DHT22;21083;50.898;4.902;2023-11-19T13:51:16;14.00;99.90
20654;DHT22;21083;50.898;4.902;2023-11-19T13:53:43;13.90;99.90
20654;DHT22;21083;50.898;4.902;2023-11-19T13:56:10;13.80;99.90
20654;DHT22;21083;50.898;4.902;2023-11-19T13:58:37;13.60;99.90
20654;DHT22;21083;50.898;4.902;2023-11-19T14:01:05;13.40;99.90
20654;DHT22;21083;50.898;4.902;2023-11-19T14:03:32;13.20;99.90
20654;DHT22;21083;50.898;4.902;2023-11-19T14:05:59;13.20;99.90
20654;DHT22;21083;50.898;4.902;2023-11-19T14:08:26;13.10;99.90
20654;DHT22;21083;50.898;4.902;2023-11-19T14:10:53;13.10;99.90
20654;DHT22;21083;50.898;4.902;2023-11-19T14:13:22;13.10;99.90
20654;DHT22;21083;50.898;4.902;2023-11-19T14:15:49;13.30;99.90
20654;DHT22;21083;50.898;4.902;2023-11-19T14:18:18;13.80;99.90
20654;DHT22;21083;50.898;4.902;2023-11-19T14:20:45;14.20;99.90
20654;DHT22;21083;50.898;4.902;2023-11-19T14:23:12;14.40;99.90
20654;DHT22;21083;50.898;4.902;2023-11-19T14:25:38;14.20;99.90
20654;DHT22;21083;50.898;4.902;2023-11-19T14:28:05;13.80;99.90
20654;DHT22;21083;50.898;4.902;2023-11-19T14:30:33;13.60;99.90
20654;DHT22;21083;50.898;4.902;2023-11-19T14:33:00;13.40;99.90
20654;DHT22;21083;50.898;4.902;2023-11-19T14:35:29;13.40;99.90
20654;DHT22;21083;50.898;4.902;2023-11-19T14:37:58;13.30;99.90
20654;DHT22;21083;50.898;4.902;2023-11-19T14:40:25;13.20;99.90
20654;DHT22;21083;50.898;4.902;2023-11-19T14:42:52;13.20;99.90
20654;DHT22;21083;50.898;4.902;2023-11-19T14:45:19;13.20;99.90
20654;DHT22;21083;50.898;4.902;2023-11-19T14:47:46;13.20;99.90
20654;DHT22;21083;50.898;4.902;2023-11-19T14:50:13;13.30;99.90
20654;DHT22;21083;50.898;4.902;2023-11-19T14:52:41;13.30;99.90
20654;DHT22;21083;50.898;4.902;2023-11-19T14:55:09;13.40;99.90
20654;DHT22;21083;50.898;4.902;2023-11-19T14:57:37;13.30;99.90
20654;DHT22;21083;50.898;4.902;2023-11-19T15:00:06;13.20;99.90
20654;DHT22;21083;50.898;4.902;2023-11-19T15:02:39;13.20;99.90
20654;DHT22;21083;50.898;4.902;2023-11-19T15:05:07;13.10;99.90
20654;DHT22;21083;50.898;4.902;2023-11-19T15:07:36;13.10;99.90
20654;DHT22;21083;50.898;4.902;2023-11-19T15:10:05;13.10;99.90
20654;DHT22;21083;50.898;4.902;2023-11-19T15:12:36;13.10;99.90
20654;DHT22;21083;50.898;4.902;2023-11-19T15:15:06;13.10;99.90
20654;DHT22;21083;50.898;4.902;2023-11-19T15:17:35;13.10;99.90
20654;DHT22;21083;50.898;4.902;2023-11-19T15:20:03;13.10;99.90
20654;DHT22;21083;50.898;4.902;2023-11-19T15:22:30;13.10;99.90
20654;DHT22;21083;50.898;4.902;2023-11-19T15:24:57;13.10;99.90
20654;DHT22;21083;50.898;4.902;2023-11-19T15:27:25;13.10;99.90
20654;DHT22;21083;50.898;4.902;2023-11-19T15:29:52;13.10;99.90
20654;DHT22;21083;50.898;4.902;2023-11-19T15:32:19;13.10;99.90
20654;DHT22;21083;50.898;4.902;2023-11-19T15:34:46;13.10;99.90
20654;DHT22;21083;50.898;4.902;2023-11-19T15:37:14;13.00;99.90
20654;DHT22;21083;50.898;4.902;2023-11-19T15:39:41;13.00;99.90